Time;durP1;ratioP1;P1;durP2;ratioP2;P2;SDS_P1;SDS_P2;PMS_P1;PMS_P2;Temp;Humidity;BMP_temperature;BMP_pressure;BME280_temperature;BME280_humidity;BME280_pressure;Samples;Min_cycle;Max_cycle;Signal;HPM_P1;HPM_P2
2021/01/02 00:00:04;;;;;;;0.32;0.32;;;6.30;99.90;;;;;;5066830;28;20119;-76
2021/01/02 00:02:44;;;;;;;1.90;0.50;;;6.30;99.90;;;;;;5093933;28;20038;-77
2021/01/02 00:05:11;;;;;;;0.63;0.50;;;6.30;99.90;;;;;;5092723;28;20477;-76
2021/01/02 00:08:02;;;;;;;0.47;0.43;;;6.40;99.90;;;;;;5093551;28;20020;-77
2021/01/02 00:10:35;;;;;;;4.05;2.08;;;6.40;99.90;;;;;;5075898;28;20031;-77
2021/01/02 00:13:16;;;;;;;4.15;2.28;;;6.50;99.90;;;;;;5073402;28;20028;-77
2021/01/02 00:16:18;;;;;;;1.55;0.52;;;6.50;99.90;;;;;;5074059;28;20039;-77
2021/01/02 00:19:04;;;;;;;0.50;0.50;;;6.50;99.90;;;;;;5073033;28;20028;-81
2021/01/02 00:21:45;;;;;;;0.60;0.60;;;6.60;99.90;;;;;;5073845;28;20597;-81
2021/01/02 00:24:32;;;;;;;1.27;0.47;;;6.50;99.90;;;;;;5092166;28;20028;-81
2021/01/02 00:27:07;;;;;;;0.75;0.70;;;6.60;99.90;;;;;;5073985;28;20028;-81
2021/01/02 00:30:02;;;;;;;1.15;0.82;;;6.60;99.90;;;;;;5092280;28;20031;-81
2021/01/02 00:32:47;;;;;;;0.68;0.68;;;6.70;99.90;;;;;;5084631;28;20066;-81
2021/01/02 00:35:21;;;;;;;1.00;0.50;;;6.60;99.90;;;;;;5074023;28;20028;-81
2021/01/02 00:38:02;;;;;;;0.40;0.40;;;6.60;99.90;;;;;;5073837;28;20052;-81
2021/01/02 00:40:29;;;;;;;1.60;0.50;;;6.50;99.90;;;;;;5074726;28;20158;-81
2021/01/02 00:42:54;;;;;;;3.30;0.80;;;6.60;99.90;;;;;;5075395;28;20505;-81
2021/01/02 00:45:25;;;;;;;1.60;0.50;;;6.60;99.90;;;;;;5075297;28;20048;-81
2021/01/02 00:47:52;;;;;;;0.57;0.57;;;6.60;99.90;;;;;;5074871;28;20389;-81
2021/01/02 00:50:23;;;;;;;0.75;0.75;;;6.60;99.90;;;;;;5075490;28;20473;-81
2021/01/02 00:52:53;;;;;;;1.98;0.73;;;6.60;99.90;;;;;;5093087;28;20477;-81
2021/01/02 00:55:31;;;;;;;2.53;0.60;;;6.60;99.90;;;;;;5075185;28;20035;-81
2021/01/02 00:58:20;;;;;;;0.65;0.65;;;6.60;99.90;;;;;;5075163;28;20050;-80
2021/01/02 01:00:57;;;;;;;0.50;0.50;;;6.60;99.90;;;;;;5093347;28;20095;-80
2021/01/02 01:03:41;;;;;;;1.35;0.68;;;6.60;99.90;;;;;;5074385;28;20024;-80
2021/01/02 01:06:11;;;;;;;0.68;0.68;;;6.60;99.90;;;;;;5075061;28;20020;-80
2021/01/02 01:08:43;;;;;;;0.75;0.50;;;6.60;99.90;;;;;;5074864;28;20318;-80
2021/01/02 01:11:14;;;;;;;1.13;0.70;;;6.60;99.90;;;;;;5093137;28;20028;-80
2021/01/02 01:13:41;;;;;;;1.10;0.52;;;6.60;99.90;;;;;;5074944;28;20115;-80
2021/01/02 01:16:08;;;;;;;0.50;0.50;;;6.60;99.90;;;;;;5074993;28;20029;-81
2021/01/02 01:18:50;;;;;;;0.73;0.65;;;6.70;99.90;;;;;;5074694;28;20037;-80
2021/01/02 01:21:19;;;;;;;1.75;0.60;;;6.70;99.90;;;;;;5093033;28;20036;-80
2021/01/02 01:24:13;;;;;;;1.15;0.70;;;6.70;99.90;;;;;;5074642;28;20589;-80
2021/01/02 01:26:50;;;;;;;1.13;0.60;;;6.70;99.90;;;;;;5074851;28;20016;-80
2021/01/02 01:29:21;;;;;;;0.95;0.70;;;6.70;99.90;;;;;;5092624;28;20056;-80
2021/01/02 01:31:52;;;;;;;1.33;1.20;;;6.70;99.90;;;;;;5092719;28;20024;-80
2021/01/02 01:34:23;;;;;;;2.35;0.90;;;6.70;99.90;;;;;;5092630;28;20036;-80
2021/01/02 01:36:50;;;;;;;0.60;0.60;;;6.70;99.90;;;;;;5092605;28;20374;-80
2021/01/02 01:39:19;;;;;;;9.23;3.15;;;6.70;99.90;;;;;;5070681;28;20408;-80
2021/01/02 01:41:45;;;;;;;8.82;5.32;;;6.70;99.90;;;;;;5071203;28;20033;-79
2021/01/02 01:44:12;;;;;;;2.80;2.53;;;6.70;99.90;;;;;;5075367;28;20036;-80
2021/01/02 01:46:53;;;;;;;0.90;0.80;;;6.70;99.90;;;;;;5074220;28;20154;-80
2021/01/02 01:49:30;;;;;;;1.27;0.60;;;6.70;99.90;;;;;;5074501;28;20048;-80
2021/01/02 01:52:04;;;;;;;1.85;0.73;;;6.70;99.90;;;;;;5092262;28;20028;-80
2021/01/02 01:54:54;;;;;;;2.05;0.65;;;6.70;99.90;;;;;;5092445;28;20032;-80
2021/01/02 01:57:25;;;;;;;2.90;0.50;;;6.70;99.90;;;;;;5073952;28;20355;-80
2021/01/02 01:59:57;;;;;;;1.40;0.57;;;6.70;99.90;;;;;;5074055;28;20023;-80
2021/01/02 02:02:45;;;;;;;2.47;0.55;;;6.70;99.90;;;;;;5091925;28;20528;-80
2021/01/02 02:05:13;;;;;;;1.33;0.50;;;6.80;99.90;;;;;;5079334;28;20044;-80
2021/01/02 02:08:11;;;;;;;2.35;0.93;;;6.80;99.90;;;;;;5091860;28;20508;-80
2021/01/02 02:10:46;;;;;;;4.13;0.80;;;6.80;99.90;;;;;;5076144;28;20036;-80
2021/01/02 02:13:13;;;;;;;1.05;0.50;;;6.80;99.90;;;;;;5073780;28;20283;-80
2021/01/02 02:15:56;;;;;;;1.30;0.80;;;6.80;99.90;;;;;;5073858;28;20086;-80
2021/01/02 02:18:27;;;;;;;1.65;0.70;;;6.80;99.90;;;;;;5092109;28;20024;-79
2021/01/02 02:20:55;;;;;;;2.83;1.23;;;6.80;99.90;;;;;;5092308;28;20032;-79
2021/01/02 02:23:26;;;;;;;4.95;0.88;;;6.80;99.90;;;;;;5092118;28;20445;-80
2021/01/02 02:26:05;;;;;;;2.22;0.68;;;6.80;99.90;;;;;;5091933;28;20024;-80
2021/01/02 02:29:09;;;;;;;2.85;0.80;;;6.90;99.90;;;;;;5073785;28;20021;-79
2021/01/02 02:31:44;;;;;;;2.90;0.80;;;7.00;99.90;;;;;;5087849;28;20063;-80
2021/01/02 02:34:14;;;;;;;4.95;1.10;;;7.00;99.90;;;;;;5092002;28;20540;-79
2021/01/02 02:36:42;;;;;;;2.80;1.00;;;7.00;99.90;;;;;;5073674;28;20028;-80
2021/01/02 02:39:10;;;;;;;4.97;0.90;;;7.00;99.90;;;;;;5091672;28;20020;-80
2021/01/02 02:41:43;;;;;;;1.83;0.52;;;6.90;99.90;;;;;;5091762;28;20032;-80
2021/01/02 02:44:10;;;;;;;2.90;0.93;;;6.90;99.90;;;;;;5091317;28;20085;-80
2021/01/02 02:46:43;;;;;;;3.20;1.15;;;6.80;99.90;;;;;;5091553;28;20050;-80
2021/01/02 02:49:12;;;;;;;1.55;1.02;;;6.80;99.90;;;;;;5091630;28;20026;-80
2021/01/02 02:51:43;;;;;;;1.75;0.60;;;6.80;99.90;;;;;;5091677;28;20485;-80
2021/01/02 02:54:09;;;;;;;1.55;0.55;;;6.70;99.90;;;;;;5073488;28;20477;-80
2021/01/02 02:56:35;;;;;;;1.15;0.90;;;6.70;99.90;;;;;;5091577;28;20035;-80
2021/01/02 02:59:01;;;;;;;0.47;0.47;;;6.70;99.90;;;;;;5073164;28;20032;-80
2021/01/02 03:01:28;;;;;;;2.85;0.60;;;6.70;99.90;;;;;;5091504;28;20032;-80
2021/01/02 03:03:55;;;;;;;0.73;0.68;;;6.70;99.90;;;;;;5073461;28;20493;-79
2021/01/02 03:06:22;;;;;;;2.78;1.05;;;6.70;99.90;;;;;;5091445;28;20028;-80
2021/01/02 03:08:54;;;;;;;3.42;0.70;;;6.80;99.90;;;;;;5091347;28;20070;-80
2021/01/02 03:11:26;;;;;;;;;;;6.70;99.90;;;;;;5091628;28;20178;-80
2021/01/02 03:13:53;;;;;;;0.60;0.60;;;6.70;99.90;;;;;;5091448;28;19922;-80
2021/01/02 03:16:20;;;;;;;5.70;0.80;;;6.70;99.90;;;;;;5091464;28;20035;-80
2021/01/02 03:18:46;;;;;;;1.42;0.70;;;6.70;99.90;;;;;;5091136;28;20024;-80
2021/01/02 03:21:12;;;;;;;3.00;0.90;;;6.70;99.90;;;;;;5091291;28;20032;-80
2021/01/02 03:23:58;;;;;;;2.08;0.77;;;6.70;99.90;;;;;;5073028;28;20103;-80
2021/01/02 03:26:24;;;;;;;2.72;0.70;;;6.70;99.90;;;;;;5094681;28;20394;-80
2021/01/02 03:28:51;;;;;;;1.80;0.90;;;6.60;99.90;;;;;;5095065;28;20035;-79
2021/01/02 03:31:17;;;;;;;1.85;0.52;;;6.70;99.90;;;;;;5076817;28;20024;-79
2021/01/02 03:33:43;;;;;;;2.85;0.77;;;6.60;99.90;;;;;;5095282;28;20135;-80
2021/01/02 03:36:09;;;;;;;4.45;0.95;;;6.60;99.90;;;;;;5094863;28;20493;-79
2021/01/02 03:38:36;;;;;;;1.73;0.60;;;6.60;99.90;;;;;;5076432;28;20024;-79
2021/01/02 03:41:01;;;;;;;1.00;0.60;;;6.60;99.90;;;;;;5076891;28;20415;-80
2021/01/02 03:43:28;;;;;;;3.42;0.85;;;6.60;99.90;;;;;;5076631;28;20020;-79
2021/01/02 03:45:53;;;;;;;1.27;1.00;;;6.60;99.90;;;;;;5094247;28;20536;-79
2021/01/02 03:48:20;;;;;;;3.80;1.02;;;6.70;99.90;;;;;;5094655;28;20017;-79
2021/01/02 03:50:46;;;;;;;0.68;0.68;;;6.70;99.90;;;;;;5076494;28;20098;-79
2021/01/02 03:53:12;;;;;;;2.22;0.70;;;6.70;99.90;;;;;;5094716;28;20016;-79
2021/01/02 03:55:37;;;;;;;2.88;0.95;;;6.70;99.90;;;;;;5076561;28;20024;-80
2021/01/02 03:58:03;;;;;;;2.35;0.95;;;6.70;99.90;;;;;;5094492;28;20024;-79
2021/01/02 04:00:29;;;;;;;6.60;1.20;;;6.70;99.90;;;;;;5076321;28;20481;-79
2021/01/02 04:02:55;;;;;;;5.28;1.60;;;6.70;99.90;;;;;;5094491;28;20435;-79
2021/01/02 04:05:21;;;;;;;3.35;0.95;;;6.70;99.90;;;;;;5094184;28;20050;-80
2021/01/02 04:07:46;;;;;;;1.45;0.75;;;6.70;99.90;;;;;;5094487;28;20099;-80
2021/01/02 04:10:12;;;;;;;2.40;0.80;;;6.70;99.90;;;;;;5076126;28;20434;-79
2021/01/02 04:12:38;;;;;;;7.90;1.23;;;6.70;99.90;;;;;;5076039;28;20107;-79
2021/01/02 04:15:04;;;;;;;2.38;1.10;;;6.70;99.90;;;;;;5094337;28;20026;-80
2021/01/02 04:17:30;;;;;;;4.18;0.95;;;6.70;99.90;;;;;;5094208;28;20024;-79
2021/01/02 04:19:56;;;;;;;3.35;1.10;;;6.70;99.90;;;;;;5093929;28;20205;-79
2021/01/02 04:22:21;;;;;;;1.33;0.90;;;6.70;99.90;;;;;;5094355;28;20029;-79
2021/01/02 04:24:47;;;;;;;2.35;0.85;;;6.70;99.90;;;;;;5094033;28;20073;-79
2021/01/02 04:27:13;;;;;;;2.03;1.40;;;6.70;99.90;;;;;;5075774;28;20016;-79
2021/01/02 04:29:38;;;;;;;4.00;1.25;;;6.80;99.90;;;;;;5094202;28;20020;-79
2021/01/02 04:32:06;;;;;;;3.20;2.05;;;6.90;99.90;;;;;;5093791;28;20418;-80
2021/01/02 04:34:32;;;;;;;3.75;1.23;;;7.00;99.90;;;;;;5075665;28;20119;-79
2021/01/02 04:36:57;;;;;;;4.38;1.35;;;7.20;99.90;;;;;;5074500;28;20177;-79
2021/01/02 04:39:23;;;;;;;3.67;1.00;;;7.20;99.90;;;;;;5093893;28;20493;-79
2021/01/02 04:41:49;;;;;;;1.20;1.10;;;7.30;99.90;;;;;;5093767;28;20016;-79
2021/01/02 04:44:17;;;;;;;3.88;1.40;;;7.30;99.90;;;;;;5075327;28;20370;-79
2021/01/02 04:46:47;;;;;;;3.22;1.20;;;7.30;99.90;;;;;;5093612;28;20073;-79
2021/01/02 04:49:13;;;;;;;2.88;1.10;;;7.40;99.90;;;;;;5093501;28;20031;-79
2021/01/02 04:51:39;;;;;;;3.22;1.13;;;7.40;99.90;;;;;;5093423;28;20099;-79
2021/01/02 04:54:06;;;;;;;5.47;1.63;;;7.40;99.90;;;;;;5075382;28;20147;-79
2021/01/02 04:56:38;;;;;;;0.98;0.98;;;7.50;99.90;;;;;;5093452;28;20095;-79
2021/01/02 04:59:13;;;;;;;2.25;1.10;;;7.50;99.90;;;;;;5075321;28;20028;-79
2021/01/02 05:01:39;;;;;;;3.13;0.98;;;7.40;99.90;;;;;;5075174;28;20494;-79
2021/01/02 05:04:06;;;;;;;2.10;0.77;;;7.50;99.90;;;;;;5093302;28;20024;-79
2021/01/02 05:06:31;;;;;;;2.63;1.40;;;7.40;99.90;;;;;;5093135;28;20436;-79
2021/01/02 05:08:59;;;;;;;1.75;0.90;;;7.40;99.90;;;;;;5093318;28;20104;-79
2021/01/02 05:11:26;;;;;;;2.08;0.95;;;7.50;99.90;;;;;;5074863;28;20028;-79
2021/01/02 05:14:00;;;;;;;5.82;1.20;;;7.40;99.90;;;;;;5074950;28;20032;-79
2021/01/02 05:16:42;;;;;;;4.78;0.98;;;7.40;99.90;;;;;;5074988;28;20122;-79
2021/01/02 05:19:12;;;;;;;4.18;1.08;;;7.40;99.90;;;;;;5093064;28;20020;-79
2021/01/02 05:21:46;;;;;;;4.53;1.00;;;7.50;99.90;;;;;;5074656;28;20082;-79
2021/01/02 05:24:13;;;;;;;1.15;0.95;;;7.40;99.90;;;;;;5074519;28;20111;-79
2021/01/02 05:26:44;;;;;;;4.47;1.08;;;7.50;99.90;;;;;;5092828;28;20028;-79
2021/01/02 05:29:14;;;;;;;2.58;0.90;;;7.60;99.90;;;;;;5092834;28;20481;-79
2021/01/02 05:31:56;;;;;;;1.08;0.98;;;7.60;99.90;;;;;;5092845;28;20020;-79
2021/01/02 05:34:24;;;;;;;3.33;0.90;;;7.70;99.90;;;;;;5092840;28;20050;-80
2021/01/02 05:37:00;;;;;;;1.77;0.85;;;7.70;99.90;;;;;;5092485;28;20258;-80
2021/01/02 05:39:52;;;;;;;2.72;0.90;;;7.70;99.90;;;;;;5092620;28;20465;-80
2021/01/02 05:42:20;;;;;;;3.33;1.00;;;7.80;99.90;;;;;;5092562;28;20078;-80
2021/01/02 05:44:46;;;;;;;5.05;0.93;;;7.70;99.90;;;;;;5074314;28;20043;-80
2021/01/02 05:47:18;;;;;;;3.95;0.88;;;7.70;99.90;;;;;;5091885;28;20028;-80
2021/01/02 05:49:50;;;;;;;2.50;1.08;;;7.70;99.90;;;;;;5092506;28;20028;-80
2021/01/02 05:52:17;;;;;;;5.03;1.80;;;7.70;99.90;;;;;;5092331;28;20020;-80
2021/01/02 05:54:51;;;;;;;1.40;0.60;;;7.70;99.90;;;;;;5092229;28;20481;-80
2021/01/02 05:57:35;;;;;;;0.93;0.70;;;7.70;99.90;;;;;;5074156;28;20047;-80
2021/01/02 06:00:00;;;;;;;2.75;0.88;;;7.60;99.90;;;;;;5092151;28;20028;-80
2021/01/02 06:02:31;;;;;;;2.05;0.90;;;7.60;99.90;;;;;;5070540;28;20024;-80
2021/01/02 06:05:06;;;;;;;0.68;0.68;;;7.60;99.90;;;;;;5071912;28;20021;-80
2021/01/02 06:07:34;;;;;;;2.47;0.82;;;7.50;99.90;;;;;;5070432;28;20097;-80
2021/01/02 06:10:01;;;;;;;2.05;0.85;;;7.50;99.90;;;;;;5070472;28;20013;-80
2021/01/02 06:12:26;;;;;;;1.75;0.80;;;7.50;99.90;;;;;;5071862;28;20023;-80
2021/01/02 06:14:54;;;;;;;1.27;0.70;;;7.50;99.90;;;;;;5070332;28;20025;-80
2021/01/02 06:17:31;;;;;;;1.38;0.65;;;7.40;99.90;;;;;;5070325;28;20066;-80
2021/01/02 06:19:58;;;;;;;0.40;0.40;;;7.40;99.90;;;;;;5071698;28;20492;-80
2021/01/02 06:22:25;;;;;;;2.17;0.80;;;7.40;99.90;;;;;;5070361;28;20174;-80
2021/01/02 06:24:51;;;;;;;0.60;0.60;;;7.40;99.90;;;;;;5071624;28;20076;-79
2021/01/02 06:27:18;;;;;;;4.85;1.10;;;7.30;99.90;;;;;;5070348;28;20493;-80
2021/01/02 06:29:51;;;;;;;1.52;1.08;;;7.30;99.90;;;;;;5071571;28;20028;-80
2021/01/02 06:32:19;;;;;;;2.03;1.17;;;7.20;99.90;;;;;;5073404;28;20028;-80
2021/01/02 06:35:07;;;;;;;3.13;0.80;;;7.20;99.90;;;;;;5073495;28;20082;-79
2021/01/02 06:37:50;;;;;;;2.53;0.63;;;7.20;99.90;;;;;;5091289;28;20035;-80
2021/01/02 06:40:27;;;;;;;2.50;1.45;;;7.20;99.90;;;;;;5091626;28;20081;-80
2021/01/02 06:42:56;;;;;;;0.82;0.65;;;7.20;99.90;;;;;;5091538;28;20024;-80
2021/01/02 06:45:39;;;;;;;1.13;0.60;;;7.20;99.90;;;;;;5091302;28;20497;-80
2021/01/02 06:48:17;;;;;;;0.50;0.50;;;7.20;99.90;;;;;;5073312;28;20397;-80
2021/01/02 06:50:53;;;;;;;0.60;0.50;;;7.20;99.90;;;;;;5091643;28;20103;-80
2021/01/02 06:53:19;;;;;;;0.60;0.60;;;7.20;99.90;;;;;;5091865;28;20024;-80
2021/01/02 06:55:45;;;;;;;0.70;0.70;;;7.20;99.90;;;;;;5091417;28;20036;-80
2021/01/02 06:58:16;;;;;;;0.45;0.45;;;7.20;99.90;;;;;;5091301;28;20109;-79
2021/01/02 07:00:42;;;;;;;0.30;0.30;;;7.10;99.90;;;;;;5093602;28;20103;-79
2021/01/02 07:03:38;;;;;;;1.05;0.50;;;7.10;99.90;;;;;;5095552;28;20119;-80
2021/01/02 07:06:25;;;;;;;0.60;0.60;;;7.20;99.90;;;;;;5077371;28;20040;-80
2021/01/02 07:08:58;;;;;;;0.38;0.38;;;7.20;99.90;;;;;;5095268;28;20033;-80
2021/01/02 07:11:37;;;;;;;1.95;0.60;;;7.10;99.90;;;;;;5095316;28;20089;-80
2021/01/02 07:14:09;;;;;;;0.52;0.50;;;7.10;99.90;;;;;;5077305;28;20398;-80
2021/01/02 07:16:50;;;;;;;0.50;0.47;;;7.10;99.90;;;;;;5095388;28;20028;-80
2021/01/02 07:19:31;;;;;;;0.47;0.47;;;7.10;99.90;;;;;;5077064;28;20170;-80
2021/01/02 07:22:02;;;;;;;0.38;0.38;;;7.10;99.90;;;;;;5077149;28;20051;-80
2021/01/02 07:24:37;;;;;;;1.47;0.50;;;7.20;99.90;;;;;;5095106;28;20493;-80
2021/01/02 07:27:07;;;;;;;0.50;0.50;;;7.10;99.90;;;;;;5076781;28;20262;-80
2021/01/02 07:29:45;;;;;;;0.77;0.65;;;7.20;99.90;;;;;;5095111;28;20381;-80
2021/01/02 07:32:28;;;;;;;0.25;0.25;;;7.10;99.90;;;;;;5076790;28;20049;-80
2021/01/02 07:35:11;;;;;;;0.52;0.52;;;7.10;99.90;;;;;;5076941;28;20024;-80
2021/01/02 07:37:39;;;;;;;0.30;0.30;;;7.10;99.90;;;;;;5094914;28;20488;-80
2021/01/02 07:40:09;;;;;;;0.40;0.40;;;7.20;99.90;;;;;;5094936;28;20035;-80
2021/01/02 07:42:37;;;;;;;0.50;0.50;;;7.30;99.90;;;;;;5094688;28;20477;-80
2021/01/02 07:45:09;;;;;;;0.40;0.40;;;7.30;99.90;;;;;;5094628;28;20044;-80
2021/01/02 07:47:39;;;;;;;0.20;0.20;;;7.30;99.90;;;;;;5094853;28;20032;-80
2021/01/02 07:50:10;;;;;;;0.60;0.60;;;7.30;99.90;;;;;;5094925;28;20074;-80
2021/01/02 07:52:37;;;;;;;0.63;0.60;;;7.30;99.90;;;;;;5075857;28;20054;-80
2021/01/02 07:55:07;;;;;;;1.33;0.50;;;7.30;99.90;;;;;;5094888;28;20027;-80
2021/01/02 07:57:32;;;;;;;0.40;0.40;;;7.30;99.90;;;;;;5076239;28;20028;-80
2021/01/02 07:59:58;;;;;;;0.40;0.40;;;7.40;99.90;;;;;;5092810;28;20051;-79
2021/01/02 08:02:25;;;;;;;0.50;0.43;;;7.40;99.90;;;;;;5074506;28;20486;-80
2021/01/02 08:04:52;;;;;;;0.50;0.50;;;7.40;99.90;;;;;;5092441;28;20506;-79
2021/01/02 08:07:18;;;;;;;0.57;0.30;;;7.40;99.90;;;;;;5074134;28;20031;-80
2021/01/02 08:09:48;;;;;;;0.50;0.50;;;7.50;99.90;;;;;;5092558;28;20028;-80
2021/01/02 08:12:16;;;;;;;0.80;0.70;;;7.50;99.90;;;;;;5092069;28;20020;-80
2021/01/02 08:14:47;;;;;;;0.40;0.40;;;7.50;99.90;;;;;;5086391;28;20025;-80
2021/01/02 08:17:15;;;;;;;0.50;0.50;;;7.60;99.90;;;;;;5081348;28;20027;-80
2021/01/02 08:19:55;;;;;;;0.45;0.40;;;7.60;99.90;;;;;;5089715;28;20027;-80
2021/01/02 08:22:28;;;;;;;0.88;0.30;;;7.70;99.90;;;;;;5092921;28;20107;-80
2021/01/02 08:25:02;;;;;;;0.50;0.50;;;7.90;99.90;;;;;;5089837;28;20089;-80
2021/01/02 08:27:34;;;;;;;0.47;0.40;;;7.90;99.90;;;;;;5070803;28;20027;-80
2021/01/02 08:30:03;;;;;;;1.67;1.52;;;7.90;99.90;;;;;;5089948;28;20020;-80
2021/01/02 08:32:32;;;;;;;0.98;0.88;;;7.90;99.90;;;;;;5086411;28;20027;-80
2021/01/02 08:34:58;;;;;;;0.60;0.60;;;7.80;99.90;;;;;;5093145;28;20020;-80
2021/01/02 08:37:24;;;;;;;1.38;0.90;;;7.80;99.90;;;;;;5090865;28;20545;-79
2021/01/02 08:40:07;;;;;;;1.58;1.40;;;7.80;99.90;;;;;;5093328;28;20126;-79
2021/01/02 08:42:35;;;;;;;1.58;1.40;;;7.80;99.90;;;;;;5092114;28;20043;-79
2021/01/02 08:45:01;;;;;;;9.52;4.97;;;7.70;99.90;;;;;;5071881;28;20040;-79
2021/01/02 08:47:27;;;;;;;7.03;3.22;;;7.80;99.90;;;;;;5091947;28;20107;-80
2021/01/02 08:49:53;;;;;;;4.75;3.35;;;7.90;99.90;;;;;;5067311;28;20032;-79
2021/01/02 08:52:23;;;;;;;5.63;4.47;;;7.90;99.90;;;;;;5087443;28;20064;-79
2021/01/02 08:54:51;;;;;;;2.05;1.35;;;7.90;99.90;;;;;;5082850;28;20070;-79
2021/01/02 08:57:33;;;;;;;1.95;0.80;;;7.90;99.90;;;;;;5081099;28;20027;-79
2021/01/02 09:00:17;;;;;;;0.88;0.60;;;8.00;99.90;;;;;;5084046;28;20094;-80
2021/01/02 09:02:57;;;;;;;0.50;0.50;;;8.00;99.90;;;;;;5078692;28;20020;-79
2021/01/02 09:05:33;;;;;;;1.75;0.82;;;8.00;99.90;;;;;;5071719;28;20108;-79
2021/01/02 09:08:03;;;;;;;0.60;0.60;;;8.10;99.90;;;;;;5081821;28;20120;-79
2021/01/02 09:10:42;;;;;;;1.02;0.77;;;8.10;99.90;;;;;;5070110;28;20554;-79
2021/01/02 09:13:07;;;;;;;1.85;0.70;;;8.20;99.90;;;;;;5070577;28;20150;-80
2021/01/02 09:15:44;;;;;;;0.90;0.50;;;8.30;99.90;;;;;;5070130;28;20111;-79
2021/01/02 09:18:15;;;;;;;0.50;0.50;;;8.30;99.90;;;;;;5069999;28;20032;-79
2021/01/02 09:20:41;;;;;;;0.55;0.55;;;8.40;99.90;;;;;;5069945;28;20025;-78
2021/01/02 09:23:10;;;;;;;0.70;0.70;;;8.40;99.90;;;;;;5085969;28;20028;-79
2021/01/02 09:25:38;;;;;;;2.63;0.88;;;8.40;99.90;;;;;;5088161;28;20036;-79
2021/01/02 09:28:17;;;;;;;0.95;0.70;;;8.40;99.90;;;;;;5072166;28;20031;-79
2021/01/02 09:30:45;;;;;;;2.00;1.00;;;8.50;99.90;;;;;;5063230;28;20488;-79
2021/01/02 09:33:11;;;;;;;0.80;0.70;;;8.50;99.90;;;;;;5090012;28;20152;-79
2021/01/02 09:35:39;;;;;;;2.60;0.80;;;8.50;99.90;;;;;;5089413;28;20039;-79
2021/01/02 09:38:05;;;;;;;1.08;0.82;;;8.70;99.90;;;;;;5072136;28;20533;-79
2021/01/02 09:40:33;;;;;;;0.50;0.50;;;8.80;99.90;;;;;;5090459;28;20056;-79
2021/01/02 09:42:59;;;;;;;1.77;0.77;;;9.00;99.90;;;;;;5089789;28;20411;-79
2021/01/02 09:45:25;;;;;;;0.80;0.70;;;9.00;99.90;;;;;;5072793;28;20144;-79
2021/01/02 09:47:50;;;;;;;1.30;1.20;;;9.00;99.90;;;;;;5072061;28;20111;-79
2021/01/02 09:50:16;;;;;;;3.10;1.58;;;8.90;99.90;;;;;;5090240;28;20082;-79
2021/01/02 09:52:42;;;;;;;3.90;1.90;;;8.90;99.90;;;;;;5090324;28;20028;-79
2021/01/02 09:55:11;;;;;;;1.27;0.85;;;9.00;99.90;;;;;;5067328;28;20032;-78
2021/01/02 09:57:37;;;;;;;2.20;1.10;;;8.90;99.90;;;;;;5051722;28;20184;-79
2021/01/02 10:00:09;;;;;;;7.85;3.65;;;8.90;99.90;;;;;;5089008;28;20051;-79
2021/01/02 10:02:35;;;;;;;1.83;1.40;;;9.00;99.90;;;;;;5090321;28;20035;-79
2021/01/02 10:05:00;;;;;;;1.50;0.65;;;9.00;99.90;;;;;;5090398;28;20024;-79
2021/01/02 10:07:26;;;;;;;0.90;0.50;;;9.00;99.90;;;;;;5090595;28;20017;-79
2021/01/02 10:09:52;;;;;;;1.67;0.80;;;9.10;99.90;;;;;;5089843;28;20101;-79
2021/01/02 10:12:18;;;;;;;0.82;0.70;;;9.10;99.90;;;;;;5077344;28;20390;-79
2021/01/02 10:14:45;;;;;;;0.57;0.57;;;9.10;99.90;;;;;;5088959;28;20112;-79
2021/01/02 10:17:11;;;;;;;1.00;0.85;;;9.00;99.90;;;;;;5083018;28;20028;-79
2021/01/02 10:19:47;;;;;;;0.80;0.80;;;9.00;99.90;;;;;;5084009;28;20027;-79
2021/01/02 10:22:16;;;;;;;0.80;0.77;;;9.00;99.90;;;;;;5082812;28;20067;-78
2021/01/02 10:24:45;;;;;;;0.40;0.40;;;8.90;99.90;;;;;;5084458;28;20034;-78
2021/01/02 10:27:11;;;;;;;1.70;0.90;;;9.00;99.90;;;;;;5078578;28;20439;-79
2021/01/02 10:29:39;;;;;;;1.85;0.70;;;9.00;99.90;;;;;;5059351;28;20033;-78
2021/01/02 10:32:06;;;;;;;2.28;2.10;;;9.00;99.90;;;;;;5078750;28;20115;-79
2021/01/02 10:34:31;;;;;;;0.70;0.68;;;8.90;99.90;;;;;;5088971;28;20449;-79
2021/01/02 10:36:57;;;;;;;0.80;0.80;;;8.90;99.90;;;;;;5089487;28;20099;-79
2021/01/02 10:39:23;;;;;;;0.90;0.90;;;8.90;99.90;;;;;;5089048;28;20082;-78
2021/01/02 10:41:50;;;;;;;3.90;1.50;;;8.80;99.90;;;;;;5082838;28;20525;-77
2021/01/02 10:44:17;;;;;;;3.15;2.85;;;8.80;99.90;;;;;;5060187;28;20036;-77
2021/01/02 10:46:45;;;;;;;1.95;1.85;;;8.80;99.90;;;;;;5077269;28;20110;-78
2021/01/02 10:49:11;;;;;;;1.63;1.52;;;8.80;99.90;;;;;;5061226;28;20032;-76
2021/01/02 10:51:38;;;;;;;2.78;2.58;;;8.70;99.90;;;;;;5065607;28;20021;-77
2021/01/02 10:54:04;;;;;;;2.70;1.70;;;8.70;99.90;;;;;;5070020;28;20035;-76
2021/01/02 10:56:30;;;;;;;1.88;1.63;;;8.70;99.90;;;;;;5054381;28;20028;-76
2021/01/02 10:58:55;;;;;;;3.15;2.72;;;8.70;99.90;;;;;;5081450;28;20139;-76
2021/01/02 11:01:21;;;;;;;19.10;8.45;;;8.70;99.90;;;;;;5071297;28;20072;-77
2021/01/02 11:03:47;;;;;;;8.07;4.43;;;8.60;99.90;;;;;;5089582;28;20028;-76
2021/01/02 11:06:16;;;;;;;4.70;3.33;;;8.60;99.90;;;;;;5070143;28;20032;-77
2021/01/02 11:08:42;;;;;;;3.35;2.50;;;8.60;99.90;;;;;;5071084;28;20647;-79
2021/01/02 11:11:08;;;;;;;6.55;4.20;;;8.70;99.90;;;;;;5070477;28;20050;-77
2021/01/02 11:13:36;;;;;;;2.10;1.90;;;8.60;99.90;;;;;;5070882;28;20028;-77
2021/01/02 11:16:01;;;;;;;4.43;2.40;;;8.60;99.90;;;;;;5087031;28;20028;-76
2021/01/02 11:18:27;;;;;;;1.73;1.60;;;8.50;99.90;;;;;;5080538;28;20112;-77
2021/01/02 11:20:53;;;;;;;27.90;10.80;;;8.50;99.90;;;;;;5084526;28;20028;-76
2021/01/02 11:23:19;;;;;;;7.38;4.78;;;8.40;99.90;;;;;;5087790;28;20130;-77
2021/01/02 11:25:46;;;;;;;16.17;8.27;;;8.40;99.90;;;;;;5067730;28;20039;-76
2021/01/02 11:28:13;;;;;;;4.80;4.30;;;8.40;99.90;;;;;;5087041;28;20385;-77
2021/01/02 11:30:39;;;;;;;5.00;4.50;;;8.30;99.90;;;;;;5083699;28;20042;-76
2021/01/02 11:33:05;;;;;;;3.17;2.75;;;8.30;99.90;;;;;;5063139;28;20020;-77
2021/01/02 11:35:31;;;;;;;7.35;4.43;;;8.30;99.90;;;;;;5064798;28;20509;-76
2021/01/02 11:37:57;;;;;;;5.75;3.78;;;8.30;99.90;;;;;;5084222;28;20028;-77
2021/01/02 11:40:23;;;;;;;2.83;2.53;;;8.30;99.90;;;;;;5065626;28;20078;-77
2021/01/02 11:42:49;;;;;;;5.93;3.50;;;8.30;99.90;;;;;;5084683;28;20428;-77
2021/01/02 11:45:21;;;;;;;8.77;4.53;;;8.20;99.90;;;;;;5088741;28;20055;-77
2021/01/02 11:47:47;;;;;;;4.20;3.22;;;8.20;99.90;;;;;;5072848;28;20064;-77
2021/01/02 11:50:13;;;;;;;15.18;7.57;;;8.10;99.90;;;;;;5090534;28;20088;-77
2021/01/02 11:52:39;;;;;;;5.07;3.22;;;8.10;99.90;;;;;;5090883;28;20054;-77
2021/01/02 11:55:11;;;;;;;26.50;10.60;;;8.20;99.90;;;;;;5094234;28;20115;-77
2021/01/02 11:57:37;;;;;;;3.58;3.17;;;8.20;99.90;;;;;;5092594;28;20031;-77
2021/01/02 12:00:08;;;;;;;24.52;10.18;;;8.20;99.90;;;;;;5076573;28;20385;-77
2021/01/02 12:02:36;;;;;;;3.60;2.80;;;8.20;99.90;;;;;;5094527;28;20028;-77
2021/01/02 12:16:31;;;;;;;6.55;2.92;;;8.30;99.90;;;;;;5182962;27;20349;-77
2021/01/02 12:18:56;;;;;;;3.03;2.72;;;8.20;99.90;;;;;;5146751;27;20393;-78
2021/01/02 12:21:22;;;;;;;2.38;2.10;;;8.10;99.90;;;;;;5147015;27;20033;-77
2021/01/02 12:23:48;;;;;;;2.60;2.40;;;8.10;99.90;;;;;;5147351;27;20473;-77
2021/01/02 12:26:14;;;;;;;3.85;2.97;;;8.10;99.90;;;;;;5150154;27;20023;-77
2021/01/02 12:28:40;;;;;;;4.40;3.75;;;8.00;99.90;;;;;;5150461;27;20022;-77
2021/01/02 12:31:07;;;;;;;5.45;3.63;;;8.00;99.90;;;;;;5150375;27;20030;-77
2021/01/02 12:33:33;;;;;;;4.43;3.40;;;7.90;99.90;;;;;;5149077;27;20026;-77
2021/01/02 12:35:58;;;;;;;3.00;2.80;;;7.90;99.90;;;;;;5148923;27;20039;-77
2021/01/02 12:38:24;;;;;;;2.65;2.45;;;7.90;99.90;;;;;;5150144;27;20023;-77
2021/01/02 12:40:51;;;;;;;2.00;1.80;;;7.90;99.90;;;;;;5150390;27;20019;-77
2021/01/02 12:43:17;;;;;;;1.17;1.08;;;7.90;99.90;;;;;;5149978;27;20389;-77
2021/01/02 12:45:43;;;;;;;1.08;1.08;;;7.90;99.90;;;;;;5149871;27;20026;-77
2021/01/02 12:48:09;;;;;;;1.20;1.10;;;7.80;99.90;;;;;;5150027;27;20023;-77
2021/01/02 12:50:35;;;;;;;1.30;1.20;;;7.80;99.90;;;;;;5149849;27;20030;-78
2021/01/02 12:53:00;;;;;;;0.88;0.88;;;7.80;99.90;;;;;;5149974;27;20027;-77
2021/01/02 12:55:26;;;;;;;1.00;0.90;;;7.80;99.90;;;;;;5148411;27;20019;-77
2021/01/02 12:57:51;;;;;;;0.73;0.73;;;7.80;99.90;;;;;;5149671;27;20212;-77
2021/01/02 13:00:17;;;;;;;1.40;1.30;;;7.80;99.90;;;;;;5149336;27;20106;-77
2021/01/02 13:02:44;;;;;;;1.50;1.30;;;7.90;99.90;;;;;;5148835;27;20030;-77
2021/01/02 13:05:10;;;;;;;3.92;2.47;;;7.90;99.90;;;;;;5144699;27;20166;-77
2021/01/02 13:07:36;;;;;;;1.67;1.27;;;7.90;99.90;;;;;;5147895;27;20381;-77
2021/01/02 13:10:01;;;;;;;1.90;1.80;;;8.00;99.90;;;;;;5149415;27;20015;-77
2021/01/02 13:12:27;;;;;;;2.97;2.28;;;7.90;99.90;;;;;;5148269;27;20011;-78
2021/01/02 13:14:52;;;;;;;2.58;2.33;;;7.90;99.90;;;;;;5149147;27;20126;-77
2021/01/02 13:17:18;;;;;;;2.45;1.90;;;7.90;99.90;;;;;;5134631;27;20477;-77
2021/01/02 13:19:45;;;;;;;5.90;3.20;;;7.90;99.90;;;;;;5134082;27;20054;-77
2021/01/02 13:22:12;;;;;;;2.88;1.70;;;7.90;99.90;;;;;;5135508;27;20034;-77
2021/01/02 13:24:39;;;;;;;3.08;1.73;;;7.90;99.90;;;;;;5135567;27;20449;-77